Time;durP1;ratioP1;P1;durP2;ratioP2;P2;SDS_P1;SDS_P2;PMS_P1;PMS_P2;Temp;Humidity;BMP_temperature;BMP_pressure;BME280_temperature;BME280_humidity;BME280_pressure;Samples;Min_cycle;Max_cycle;Signal;HPM_P1;HPM_P2
2024/03/21 00:02:18;;;;;;;8.02;5.82;;;10.50;99.90;;;;;;4957277;28;19914;-94
2024/03/21 00:04:44;;;;;;;10.68;6.63;;;10.50;99.90;;;;;;4928881;28;20039;-89
2024/03/21 00:07:11;;;;;;;8.23;5.90;;;10.50;99.90;;;;;;4933916;28;20037;-92
2024/03/21 00:09:40;;;;;;;9.32;6.38;;;10.60;99.90;;;;;;4938591;28;20043;-93
2024/03/21 00:12:06;;;;;;;9.43;6.63;;;10.60;99.90;;;;;;4929592;29;20035;-93
2024/03/21 00:14:32;;;;;;;8.95;6.68;;;10.60;99.90;;;;;;4928182;28;20048;-92
2024/03/21 00:16:58;;;;;;;10.88;6.93;;;10.60;99.90;;;;;;4936216;28;20502;-93
2024/03/21 00:19:23;;;;;;;7.78;6.00;;;10.70;99.90;;;;;;4937916;28;20145;-92
2024/03/21 00:21:50;;;;;;;9.00;6.55;;;10.60;99.90;;;;;;4964840;28;20377;-92
2024/03/21 00:24:17;;;;;;;9.10;6.30;;;10.60;99.90;;;;;;4941452;28;20522;-92
2024/03/21 00:26:44;;;;;;;9.30;6.57;;;10.50;99.90;;;;;;4939470;28;20059;-91
2024/03/21 00:29:09;;;;;;;12.23;7.38;;;10.60;99.90;;;;;;4943280;28;20032;-89
2024/03/21 00:31:35;;;;;;;10.20;7.55;;;10.60;99.90;;;;;;4928852;28;20288;-93
2024/03/21 00:34:01;;;;;;;9.43;6.50;;;10.50;99.90;;;;;;4940737;28;20138;-93
2024/03/21 00:36:27;;;;;;;10.18;7.15;;;10.40;99.90;;;;;;4940667;28;20079;-91
2024/03/21 00:38:54;;;;;;;9.20;6.13;;;10.40;99.90;;;;;;4940318;28;20036;-94
2024/03/21 00:41:20;;;;;;;8.82;6.75;;;10.40;99.90;;;;;;4941677;28;20098;-93
2024/03/21 00:43:47;;;;;;;11.82;7.38;;;10.50;99.90;;;;;;4923223;28;20066;-94
2024/03/21 00:46:13;;;;;;;13.07;7.25;;;10.40;99.90;;;;;;4918884;28;20138;-93
2024/03/21 00:48:39;;;;;;;8.75;6.43;;;10.30;99.90;;;;;;4933079;28;20491;-93
2024/03/21 00:51:05;;;;;;;9.30;6.45;;;10.40;99.90;;;;;;4942658;29;20119;-94
2024/03/21 00:53:31;;;;;;;11.75;7.38;;;10.40;99.90;;;;;;4941571;28;20524;-91
2024/03/21 00:55:57;;;;;;;10.50;6.63;;;10.50;99.90;;;;;;4929545;29;20054;-94
2024/03/21 00:58:24;;;;;;;10.63;7.20;;;10.50;99.90;;;;;;4956147;28;20198;-94
2024/03/21 01:00:50;;;;;;;10.50;7.72;;;10.50;99.90;;;;;;4936520;28;20039;-93
2024/03/21 01:03:16;;;;;;;10.32;7.47;;;10.50;99.90;;;;;;4929079;28;20053;-93
2024/03/21 01:05:43;;;;;;;9.77;7.22;;;10.50;99.90;;;;;;4955435;28;20035;-92
2024/03/21 01:08:09;;;;;;;9.70;6.25;;;10.40;99.90;;;;;;4947235;28;20046;-94
2024/03/21 01:10:35;;;;;;;8.30;5.93;;;10.40;99.90;;;;;;4927205;29;20043;-91
2024/03/21 01:13:00;;;;;;;9.40;6.68;;;10.30;99.90;;;;;;4919954;28;20479;-94
2024/03/21 01:15:26;;;;;;;9.15;6.13;;;10.20;99.90;;;;;;4919759;29;20051;-89
2024/03/21 01:17:52;;;;;;;8.77;6.18;;;10.30;99.90;;;;;;4919101;29;20028;-93
2024/03/21 01:20:18;;;;;;;8.52;6.15;;;10.40;99.90;;;;;;4920164;29;20040;-94
2024/03/21 01:22:43;;;;;;;10.20;6.15;;;10.40;99.90;;;;;;4921881;29;20068;-93
2024/03/21 01:25:09;;;;;;;8.30;6.18;;;10.40;99.90;;;;;;4921923;29;20039;-94
2024/03/21 01:27:35;;;;;;;9.88;6.22;;;10.40;99.90;;;;;;4914408;29;20068;-93
2024/03/21 01:30:02;;;;;;;9.25;6.53;;;10.40;99.90;;;;;;4908309;29;20031;-94
2024/03/21 01:32:28;;;;;;;9.00;5.22;;;10.40;99.90;;;;;;4935395;29;20044;-91
2024/03/21 01:34:54;;;;;;;10.23;6.45;;;10.30;99.90;;;;;;4925692;29;20044;-92
2024/03/21 01:37:19;;;;;;;11.63;6.95;;;10.40;99.90;;;;;;4924596;29;20540;-92
2024/03/21 01:39:45;;;;;;;8.70;5.93;;;10.40;99.90;;;;;;4927754;29;20122;-94
2024/03/21 01:42:17;;;;;;;10.75;7.22;;;10.40;99.90;;;;;;4916706;29;20040;-93
2024/03/21 01:44:58;;;;;;;9.93;6.53;;;10.30;99.90;;;;;;4915499;29;20032;-92
2024/03/21 01:47:24;;;;;;;9.68;6.40;;;10.40;99.90;;;;;;4935406;29;20135;-93
2024/03/21 01:49:49;;;;;;;9.25;6.65;;;10.50;99.90;;;;;;4924601;29;20462;-94
2024/03/21 01:52:16;;;;;;;10.70;6.45;;;10.50;99.90;;;;;;4918624;29;20043;-94
2024/03/21 01:54:43;;;;;;;10.75;7.90;;;10.60;99.90;;;;;;4918825;29;20516;-95
2024/03/21 01:57:09;;;;;;;12.65;8.52;;;10.60;99.90;;;;;;4907693;29;20058;-95
2024/03/21 01:59:35;;;;;;;11.00;7.45;;;10.60;99.90;;;;;;4937384;29;20046;-94
2024/03/21 02:02:00;;;;;;;11.48;7.72;;;10.60;99.90;;;;;;4924988;29;20023;-94
2024/03/21 02:04:27;;;;;;;13.10;7.78;;;10.60;99.90;;;;;;4904495;29;20032;-94
2024/03/21 02:06:53;;;;;;;12.80;9.23;;;10.60;99.90;;;;;;4912411;29;20043;-94
2024/03/21 02:09:22;;;;;;;17.88;11.48;;;10.70;99.90;;;;;;4911339;29;20091;-93
2024/03/21 02:11:48;;;;;;;16.10;10.73;;;10.70;99.90;;;;;;4905437;29;20146;-94
2024/03/21 02:14:15;;;;;;;15.15;9.07;;;10.70;99.90;;;;;;4907821;29;20184;-93
2024/03/21 02:16:40;;;;;;;13.48;9.07;;;10.50;99.90;;;;;;4930534;29;20178;-94
2024/03/21 02:19:06;;;;;;;11.88;7.88;;;10.40;99.90;;;;;;4910030;29;20082;-94
2024/03/21 02:24:16;;;;;;;12.13;8.65;;;10.50;99.90;;;;;;4917334;29;20131;-94
2024/03/21 02:26:41;;;;;;;12.15;8.70;;;10.50;99.90;;;;;;4909710;29;20130;-94
2024/03/21 02:29:07;;;;;;;11.07;7.97;;;10.50;99.90;;;;;;4934739;29;20473;-92
2024/03/21 02:31:33;;;;;;;13.35;8.75;;;10.50;99.90;;;;;;4935117;29;20044;-93
2024/03/21 02:33:59;;;;;;;11.82;7.97;;;10.40;99.90;;;;;;4907639;29;20504;-94
2024/03/21 02:36:24;;;;;;;12.93;8.35;;;10.30;99.90;;;;;;4908927;29;20035;-93
2024/03/21 02:38:50;;;;;;;10.30;7.60;;;10.20;99.90;;;;;;4919956;29;20044;-94
2024/03/21 02:41:16;;;;;;;12.13;7.95;;;10.30;99.90;;;;;;4917066;29;20039;-93
2024/03/21 02:43:42;;;;;;;11.88;8.00;;;10.30;99.90;;;;;;4919754;29;20043;-93
2024/03/21 02:46:07;;;;;;;15.13;9.65;;;10.30;99.90;;;;;;4935235;29;20131;-94
2024/03/21 02:48:36;;;;;;;18.42;12.23;;;10.40;99.90;;;;;;4911760;29;20047;-94
2024/03/21 02:51:02;;;;;;;26.17;17.15;;;10.60;99.90;;;;;;4904346;29;20039;-96
2024/03/21 02:53:27;;;;;;;35.83;22.38;;;10.60;99.90;;;;;;4937585;29;20052;-93
2024/03/21 02:55:53;;;;;;;35.42;22.83;;;10.80;99.90;;;;;;4905186;29;20426;-93
2024/03/21 02:58:19;;;;;;;31.60;21.52;;;10.90;99.90;;;;;;4932290;29;20574;-93
2024/03/21 03:00:44;;;;;;;38.58;25.42;;;10.90;99.90;;;;;;4940859;29;20446;-93
2024/03/21 03:03:10;;;;;;;36.88;22.60;;;10.90;99.90;;;;;;4939630;29;20040;-94
2024/03/21 03:05:42;;;;;;;36.70;22.80;;;10.90;99.90;;;;;;4902218;29;20067;-93
2024/03/21 03:08:08;;;;;;;36.72;24.65;;;10.90;99.90;;;;;;4932849;29;20054;-94
2024/03/21 03:10:36;;;;;;;32.08;21.65;;;10.90;99.90;;;;;;4945469;29;20420;-94
2024/03/21 03:13:02;;;;;;;32.20;20.30;;;10.90;99.90;;;;;;4917872;29;20036;-94
2024/03/21 03:15:28;;;;;;;31.45;19.73;;;10.90;99.90;;;;;;4920697;29;20098;-93
2024/03/21 03:17:53;;;;;;;24.42;15.30;;;10.90;99.90;;;;;;4914857;29;20031;-93
2024/03/21 03:20:19;;;;;;;24.85;18.25;;;10.80;99.90;;;;;;4908818;29;20047;-95
2024/03/21 03:22:45;;;;;;;22.45;14.93;;;10.80;99.90;;;;;;4933906;29;20110;-94
2024/03/21 03:25:10;;;;;;;23.13;15.95;;;10.80;99.90;;;;;;4920571;29;20036;-94
2024/03/21 03:27:36;;;;;;;30.42;19.13;;;10.70;99.90;;;;;;4921355;29;20087;-94
2024/03/21 03:30:03;;;;;;;26.63;18.70;;;10.80;99.90;;;;;;4913496;29;20064;-94
2024/03/21 03:32:32;;;;;;;24.65;16.75;;;10.80;99.90;;;;;;4909578;29;20400;-93
2024/03/21 03:37:42;;;;;;;28.10;20.10;;;10.80;99.90;;;;;;4922887;29;20122;-93
2024/03/21 03:40:09;;;;;;;35.60;23.67;;;10.80;99.90;;;;;;4928192;29;20146;-95
2024/03/21 03:42:36;;;;;;;31.30;21.48;;;10.80;99.90;;;;;;4913152;29;20062;-94
2024/03/21 03:45:01;;;;;;;29.20;21.15;;;10.80;99.90;;;;;;4907599;29;20042;-94
2024/03/21 03:47:27;;;;;;;26.13;19.13;;;10.80;99.90;;;;;;4932780;29;20395;-91
2024/03/21 03:49:54;;;;;;;34.30;23.55;;;10.70;99.90;;;;;;4919838;29;20047;-92
2024/03/21 03:52:20;;;;;;;29.65;20.55;;;10.80;99.90;;;;;;4923671;29;20027;-92
2024/03/21 03:54:46;;;;;;;31.45;21.13;;;10.70;99.90;;;;;;4915963;29;20043;-94
2024/03/21 03:57:12;;;;;;;31.77;21.20;;;10.60;99.90;;;;;;4920591;29;20491;-92
2024/03/21 03:59:38;;;;;;;30.00;21.25;;;10.50;99.90;;;;;;4934392;29;20059;-91
2024/03/21 04:02:04;;;;;;;32.97;21.20;;;10.50;99.90;;;;;;4908161;29;20586;-93
2024/03/21 04:04:29;;;;;;;28.33;20.83;;;10.40;99.90;;;;;;4911211;29;20043;-93
2024/03/21 04:06:56;;;;;;;24.02;17.23;;;10.30;99.90;;;;;;4907013;29;20118;-94
2024/03/21 04:09:22;;;;;;;30.90;20.73;;;10.30;99.90;;;;;;4925839;29;20093;-94
2024/03/21 04:11:48;;;;;;;31.40;20.13;;;10.40;99.90;;;;;;4941619;29;20572;-93
2024/03/21 04:14:13;;;;;;;35.65;25.77;;;10.40;99.90;;;;;;4915179;29;20052;-95
2024/03/21 04:16:39;;;;;;;34.85;26.13;;;10.40;99.90;;;;;;4922500;29;20047;-92
2024/03/21 04:19:05;;;;;;;39.47;26.65;;;10.50;99.90;;;;;;4921026;29;20078;-93
2024/03/21 04:21:30;;;;;;;40.40;28.55;;;10.40;99.90;;;;;;4929322;29;20047;-93
2024/03/21 04:23:56;;;;;;;37.65;25.67;;;10.50;99.90;;;;;;4922076;29;20044;-95
2024/03/21 04:26:22;;;;;;;33.60;25.17;;;10.50;99.90;;;;;;4902702;29;20114;-94
2024/03/21 04:28:47;;;;;;;37.00;26.80;;;10.50;99.90;;;;;;4925625;29;20544;-91
2024/03/21 04:31:13;;;;;;;34.67;25.38;;;10.50;99.90;;;;;;4915374;29;20036;-93
2024/03/21 04:33:39;;;;;;;38.85;27.60;;;10.50;99.90;;;;;;4923036;29;20052;-93
2024/03/21 04:36:06;;;;;;;35.22;23.63;;;10.50;99.90;;;;;;4930487;29;20023;-93
2024/03/21 04:38:32;;;;;;;35.28;25.67;;;10.50;99.90;;;;;;4904637;29;20042;-91
2024/03/21 04:40:57;;;;;;;29.23;21.08;;;10.50;99.90;;;;;;4923979;29;20028;-93
2024/03/21 04:43:23;;;;;;;29.15;22.50;;;10.50;99.90;;;;;;4923210;29;20047;-93
2024/03/21 04:45:48;;;;;;;29.00;22.05;;;10.50;99.90;;;;;;4909037;29;20062;-94
2024/03/21 04:48:14;;;;;;;29.20;20.85;;;10.50;99.90;;;;;;4906674;29;20082;-94
2024/03/21 04:50:40;;;;;;;25.80;17.60;;;10.50;99.90;;;;;;4926506;29;20056;-94
2024/03/21 04:53:06;;;;;;;20.63;15.57;;;10.40;99.90;;;;;;4924784;29;20054;-94
2024/03/21 04:55:31;;;;;;;20.27;12.13;;;10.40;99.90;;;;;;4908815;29;20081;-93
2024/03/21 04:57:58;;;;;;;16.33;10.38;;;10.30;99.90;;;;;;4922529;29;20423;-94
2024/03/21 05:00:24;;;;;;;16.60;9.32;;;10.30;99.90;;;;;;4936272;29;20043;-91
2024/03/21 05:02:49;;;;;;;13.63;9.10;;;10.20;99.90;;;;;;4936607;29;20039;-93
2024/03/21 05:05:15;;;;;;;13.15;8.77;;;10.20;99.90;;;;;;4914047;29;20134;-93
2024/03/21 05:07:41;;;;;;;13.65;8.52;;;10.20;99.90;;;;;;4921310;29;20035;-93
2024/03/21 05:10:07;;;;;;;12.98;9.10;;;10.10;99.90;;;;;;4919485;29;20128;-91
2024/03/21 05:12:33;;;;;;;13.38;8.30;;;10.10;99.90;;;;;;4911568;29;20086;-92
2024/03/21 05:14:58;;;;;;;12.18;7.22;;;10.00;99.90;;;;;;4920065;29;20087;-91
2024/03/21 05:17:24;;;;;;;14.95;8.15;;;10.00;99.90;;;;;;4915811;29;20039;-93
2024/03/21 05:19:50;;;;;;;11.93;8.13;;;10.00;99.90;;;;;;4908903;29;20054;-93
2024/03/21 05:22:16;;;;;;;10.05;6.43;;;10.00;99.90;;;;;;4920149;29;20135;-92
2024/03/21 05:24:42;;;;;;;9.13;5.90;;;10.00;99.90;;;;;;4934973;29;20560;-92
2024/03/21 05:27:09;;;;;;;8.35;5.38;;;9.90;99.90;;;;;;4910768;29;20039;-92
2024/03/21 05:29:35;;;;;;;8.02;4.95;;;9.90;99.90;;;;;;4934729;29;20036;-92
2024/03/21 05:32:02;;;;;;;9.80;5.72;;;9.80;99.90;;;;;;4917603;29;20042;-93
2024/03/21 05:34:28;;;;;;;5.80;4.22;;;9.80;99.90;;;;;;4911213;29;20055;-92
2024/03/21 05:36:54;;;;;;;8.65;4.53;;;9.70;99.90;;;;;;4934809;29;20034;-91
2024/03/21 05:39:19;;;;;;;8.15;4.47;;;9.70;99.90;;;;;;4903863;29;20408;-92
2024/03/21 05:41:45;;;;;;;5.40;3.30;;;9.70;99.90;;;;;;4910766;29;20103;-92
2024/03/21 05:44:11;;;;;;;7.28;4.07;;;9.70;99.90;;;;;;4917992;29;20056;-91
2024/03/21 05:46:37;;;;;;;6.10;3.95;;;9.60;99.90;;;;;;4935069;29;20083;-93
2024/03/21 05:49:03;;;;;;;5.15;3.83;;;9.60;99.90;;;;;;4912540;29;20051;-92
2024/03/21 05:51:29;;;;;;;4.45;3.70;;;9.60;99.90;;;;;;4917712;29;20118;-90
2024/03/21 05:53:54;;;;;;;4.78;3.15;;;9.50;99.90;;;;;;4934114;28;20488;-92
2024/03/21 05:56:20;;;;;;;4.95;3.78;;;9.50;99.90;;;;;;4937806;29;20046;-91
2024/03/21 05:58:46;;;;;;;4.53;2.75;;;9.40;99.90;;;;;;4907974;29;20349;-91
2024/03/21 06:03:43;;;;;;;5.00;3.55;;;9.30;99.90;;;;;;4916145;29;20040;-90
2024/03/21 06:06:10;;;;;;;6.78;4.30;;;9.40;99.90;;;;;;4935183;29;20039;-92
2024/03/21 06:08:36;;;;;;;5.05;4.18;;;9.30;99.90;;;;;;4912520;29;20041;-91
2024/03/21 06:11:03;;;;;;;6.65;4.50;;;9.20;99.90;;;;;;4934772;29;20094;-93
2024/03/21 06:13:29;;;;;;;5.20;4.63;;;9.20;99.90;;;;;;4918461;29;20056;-91
2024/03/21 06:15:55;;;;;;;6.20;4.95;;;9.20;99.90;;;;;;4920729;29;20118;-92
2024/03/21 06:18:21;;;;;;;7.65;4.72;;;9.00;99.90;;;;;;4916988;29;20131;-91
2024/03/21 06:20:46;;;;;;;7.50;5.95;;;8.90;99.90;;;;;;4921135;29;20079;-92
2024/03/21 06:23:12;;;;;;;7.50;5.22;;;8.80;99.90;;;;;;4915855;29;20036;-91
2024/03/21 06:25:38;;;;;;;8.98;4.65;;;8.80;99.90;;;;;;4912571;29;20197;-91
2024/03/21 06:28:05;;;;;;;4.18;3.55;;;8.70;99.90;;;;;;4912169;29;20039;-90
2024/03/21 06:30:32;;;;;;;4.63;3.10;;;8.80;99.90;;;;;;4930600;29;20106;-91
2024/03/21 06:32:57;;;;;;;6.90;3.20;;;8.80;99.90;;;;;;4920025;29;20062;-89
2024/03/21 06:35:24;;;;;;;4.97;2.20;;;8.70;99.90;;;;;;4916902;29;20052;-90
2024/03/21 06:37:51;;;;;;;3.65;1.40;;;8.70;99.90;;;;;;4930370;29;20036;-90
2024/03/21 06:40:17;;;;;;;3.90;1.73;;;8.70;99.90;;;;;;4909243;29;20036;-91
2024/03/21 06:42:43;;;;;;;4.57;1.73;;;8.60;99.90;;;;;;4916818;29;20058;-90
2024/03/21 06:45:09;;;;;;;4.00;1.30;;;8.70;99.90;;;;;;4939204;29;20036;-93
2024/03/21 06:47:38;;;;;;;2.63;0.90;;;8.70;99.90;;;;;;4917180;29;20063;-92
2024/03/21 06:50:04;;;;;;;3.90;0.98;;;8.60;99.90;;;;;;4929809;29;20060;-89
2024/03/21 06:52:30;;;;;;;3.78;0.70;;;8.70;99.90;;;;;;4932680;29;20127;-92
2024/03/21 06:54:56;;;;;;;3.38;0.70;;;8.70;99.90;;;;;;4919210;29;20051;-91
2024/03/21 06:57:25;;;;;;;2.53;0.50;;;8.70;99.90;;;;;;4903399;29;20109;-89
2024/03/21 06:59:52;;;;;;;3.55;0.88;;;8.80;99.90;;;;;;4910733;29;20090;-89
2024/03/21 07:02:18;;;;;;;2.85;0.80;;;8.80;99.90;;;;;;4920964;29;20168;-91
2024/03/21 07:04:44;;;;;;;3.40;1.15;;;8.70;99.90;;;;;;4913470;29;20032;-89
2024/03/21 07:07:10;;;;;;;3.00;0.60;;;8.70;99.90;;;;;;4935166;28;20039;-89
2024/03/21 07:09:38;;;;;;;5.40;0.80;;;8.70;99.90;;;;;;4916540;29;20150;-89
2024/03/21 07:12:04;;;;;;;2.25;0.73;;;8.70;99.90;;;;;;4915531;29;20374;-90
2024/03/21 07:14:35;;;;;;;2.30;0.93;;;8.70;99.90;;;;;;4916771;29;20070;-90
2024/03/21 07:17:01;;;;;;;1.88;0.70;;;8.70;99.90;;;;;;4920406;29;20547;-90
2024/03/21 07:19:33;;;;;;;4.22;0.65;;;8.70;99.90;;;;;;4916076;29;20050;-92
2024/03/21 07:22:05;;;;;;;2.58;0.60;;;8.70;99.90;;;;;;4906673;29;20043;-89
2024/03/21 07:24:32;;;;;;;3.92;0.60;;;8.70;99.90;;;;;;4935186;29;20039;-90
2024/03/21 07:26:58;;;;;;;1.50;0.40;;;8.80;99.90;;;;;;4931235;29;20035;-90
2024/03/21 07:29:24;;;;;;;2.20;0.35;;;8.90;99.90;;;;;;4919518;29;20415;-89
2024/03/21 07:31:49;;;;;;;3.72;0.77;;;8.90;99.90;;;;;;4910531;29;20031;-90
2024/03/21 07:34:15;;;;;;;1.17;0.47;;;8.80;99.90;;;;;;4908356;29;20062;-90
2024/03/21 07:36:41;;;;;;;2.83;0.70;;;8.90;99.90;;;;;;4910101;29;20036;-91
2024/03/21 07:39:07;;;;;;;2.90;0.90;;;8.90;99.90;;;;;;4919682;29;20041;-90
2024/03/21 07:41:32;;;;;;;2.85;0.60;;;8.80;99.90;;;;;;4934555;29;20028;-91
2024/03/21 07:43:58;;;;;;;1.63;0.50;;;8.90;99.90;;;;;;4933844;29;20150;-90
2024/03/21 07:46:24;;;;;;;1.85;0.50;;;8.90;99.90;;;;;;4910725;29;20259;-91
2024/03/21 07:48:49;;;;;;;3.25;0.45;;;9.00;99.90;;;;;;4905225;29;20489;-91
2024/03/21 07:51:17;;;;;;;6.32;1.13;;;9.10;99.90;;;;;;4933799;29;20048;-91
2024/03/21 07:53:42;;;;;;;3.22;0.90;;;9.00;99.90;;;;;;4910002;29;20051;-90
2024/03/21 07:56:08;;;;;;;4.50;0.68;;;8.90;99.90;;;;;;4917976;29;20028;-90
2024/03/21 07:58:34;;;;;;;1.92;0.60;;;9.10;99.90;;;;;;4905103;29;20043;-91
2024/03/21 08:00:59;;;;;;;3.40;0.50;;;9.10;99.90;;;;;;4931712;29;20507;-91
2024/03/21 08:03:25;;;;;;;2.75;0.40;;;9.20;99.90;;;;;;4936622;29;20503;-91
2024/03/21 08:05:54;;;;;;;1.25;0.30;;;9.30;99.90;;;;;;4916334;29;20051;-91
2024/03/21 08:08:19;;;;;;;4.25;0.57;;;9.40;99.90;;;;;;4917261;29;20044;-91
2024/03/21 08:10:45;;;;;;;1.60;0.30;;;9.30;99.90;;;;;;4909222;29;20035;-90
2024/03/21 08:13:11;;;;;;;1.65;0.20;;;9.50;99.90;;;;;;4933661;29;20094;-92
2024/03/21 08:15:36;;;;;;;1.65;0.30;;;9.50;99.90;;;;;;4915108;29;20066;-92
2024/03/21 08:18:03;;;;;;;4.13;0.55;;;9.50;99.90;;;;;;4894396;29;20031;-90
2024/03/21 08:20:29;;;;;;;1.73;0.40;;;9.30;99.90;;;;;;4904835;29;20579;-91
2024/03/21 08:22:56;;;;;;;4.47;0.68;;;9.40;99.90;;;;;;4907794;29;20451;-90
2024/03/21 08:25:21;;;;;;;1.85;0.40;;;9.30;99.90;;;;;;4906886;29;20043;-91
2024/03/21 08:27:47;;;;;;;2.15;0.50;;;9.40;99.90;;;;;;4911732;29;20036;-91
2024/03/21 08:30:13;;;;;;;3.03;0.30;;;9.30;99.90;;;;;;4932762;29;20043;-90
2024/03/21 08:32:39;;;;;;;5.90;0.70;;;9.40;99.90;;;;;;4905091;29;20047;-91
2024/03/21 08:35:05;;;;;;;2.95;0.40;;;9.40;99.90;;;;;;4911190;29;20351;-90
2024/03/21 08:37:30;;;;;;;3.22;0.40;;;9.40;99.90;;;;;;4908183;29;20042;-92
2024/03/21 08:39:58;;;;;;;2.75;0.40;;;9.50;99.90;;;;;;4919523;29;20143;-91
2024/03/21 08:42:24;;;;;;;4.78;0.50;;;9.60;99.90;;;;;;4900064;29;20456;-91
2024/03/21 08:44:54;;;;;;;4.28;0.60;;;9.50;99.90;;;;;;4915994;29;20050;-91
2024/03/21 08:47:20;;;;;;;5.40;0.60;;;9.40;99.90;;;;;;4935051;29;20036;-91
2024/03/21 08:49:46;;;;;;;4.78;0.90;;;9.50;99.90;;;;;;4904494;29;20448;-90
2024/03/21 08:52:12;;;;;;;3.47;0.70;;;9.40;99.90;;;;;;4897980;29;20463;-91
2024/03/21 08:54:37;;;;;;;4.50;0.60;;;9.40;99.90;;;;;;4906795;29;20051;-90
2024/03/21 08:57:03;;;;;;;2.35;0.30;;;9.40;99.90;;;;;;4903018;29;20063;-90
2024/03/21 08:59:29;;;;;;;4.20;0.30;;;9.50;99.90;;;;;;4915280;29;20040;-92
2024/03/21 09:01:55;;;;;;;2.72;0.50;;;9.50;99.90;;;;;;4926728;29;20262;-91
2024/03/21 09:04:20;;;;;;;3.45;0.60;;;9.60;99.90;;;;;;4915127;29;20098;-91
2024/03/21 09:06:46;;;;;;;3.83;0.40;;;9.60;99.90;;;;;;4906194;29;20150;-89
2024/03/21 09:09:12;;;;;;;4.68;0.40;;;9.50;99.90;;;;;;4919704;29;20043;-89
2024/03/21 09:11:37;;;;;;;2.47;0.50;;;9.50;99.90;;;;;;4903708;29;20433;-90
2024/03/21 09:14:03;;;;;;;4.35;0.45;;;9.40;99.90;;;;;;4900609;29;20064;-89
2024/03/21 09:16:29;;;;;;;2.03;0.45;;;9.40;99.90;;;;;;4916247;29;20130;-89
2024/03/21 09:18:55;;;;;;;1.92;0.20;;;9.50;99.90;;;;;;4903701;29;20051;-90
2024/03/21 09:21:21;;;;;;;2.55;0.30;;;9.80;99.90;;;;;;4897428;29;20036;-90
2024/03/21 09:23:48;;;;;;;5.47;0.75;;;9.70;99.90;;;;;;4905450;29;20040;-89
2024/03/21 09:26:13;;;;;;;3.70;0.40;;;9.80;99.90;;;;;;4900552;29;20036;-89
2024/03/21 09:28:39;;;;;;;3.75;0.60;;;9.80;99.90;;;;;;4911823;29;20086;-89
2024/03/21 09:31:05;;;;;;;4.53;0.63;;;10.00;99.90;;;;;;4905069;29;20501;-89
2024/03/21 09:33:34;;;;;;;2.20;0.22;;;10.00;99.90;;;;;;4905083;29;20098;-90
2024/03/21 09:36:03;;;;;;;2.70;0.30;;;10.20;99.90;;;;;;4912693;29;20044;-90
2024/03/21 09:38:29;;;;;;;2.80;0.20;;;10.00;99.90;;;;;;4903428;29;20046;-89
2024/03/21 09:41:00;;;;;;;3.10;0.45;;;10.40;99.90;;;;;;4901591;29;20405;-89
2024/03/21 09:43:27;;;;;;;2.20;0.20;;;10.40;99.90;;;;;;4899611;29;20032;-89
2024/03/21 09:45:53;;;;;;;2.33;0.35;;;10.70;99.90;;;;;;4915012;29;20048;-89
2024/03/21 09:48:19;;;;;;;5.22;0.32;;;10.90;99.90;;;;;;4912667;29;20128;-89
2024/03/21 09:50:47;;;;;;;3.42;0.40;;;10.50;99.90;;;;;;4916813;29;20484;-89
2024/03/21 09:53:16;;;;;;;2.38;0.20;;;10.50;99.90;;;;;;4901747;29;20051;-89
2024/03/21 09:55:42;;;;;;;4.88;0.40;;;10.80;99.90;;;;;;4901157;29;20044;-89
2024/03/21 09:58:13;;;;;;;1.70;0.10;;;10.60;99.90;;;;;;4913736;29;20156;-90
2024/03/21 10:00:39;;;;;;;3.28;0.52;;;10.80;99.90;;;;;;4896764;29;20515;-90
2024/03/21 10:03:05;;;;;;;2.92;0.30;;;10.40;99.90;;;;;;4931074;29;20046;-91
2024/03/21 10:05:31;;;;;;;5.65;0.40;;;10.60;99.90;;;;;;4904419;29;20043;-90
2024/03/21 10:07:57;;;;;;;2.95;0.30;;;10.60;99.90;;;;;;4915890;29;20032;-90
2024/03/21 10:10:24;;;;;;;5.10;0.50;;;10.60;99.90;;;;;;4901939;29;20173;-91
2024/03/21 10:12:50;;;;;;;3.00;0.30;;;10.60;99.90;;;;;;4898524;29;20036;-92
2024/03/21 10:15:17;;;;;;;3.67;0.22;;;10.90;99.90;;;;;;4917358;29;20503;-93
2024/03/21 10:17:43;;;;;;;3.13;0.30;;;11.20;99.90;;;;;;4910696;29;20071;-90
2024/03/21 10:20:09;;;;;;;2.55;0.50;;;11.40;99.90;;;;;;4911923;29;20126;-90
2024/03/21 10:22:35;;;;;;;3.75;0.20;;;11.50;99.90;;;;;;4915186;29;20076;-90
2024/03/21 10:25:06;;;;;;;2.83;0.50;;;11.60;99.90;;;;;;4903743;29;20040;-90
2024/03/21 10:27:32;;;;;;;1.58;0.30;;;11.70;99.90;;;;;;4897222;29;20035;-90
2024/03/21 10:29:58;;;;;;;3.95;0.20;;;11.70;99.90;;;;;;4920959;29;20039;-90
2024/03/21 10:32:25;;;;;;;3.78;0.32;;;11.60;99.90;;;;;;4917333;29;20511;-90
2024/03/21 10:34:52;;;;;;;4.28;0.40;;;11.60;99.90;;;;;;4904758;29;20047;-93
2024/03/21 10:37:20;;;;;;;2.88;0.40;;;11.50;99.90;;;;;;4916232;29;20028;-90
2024/03/21 10:39:47;;;;;;;3.03;0.20;;;11.50;99.90;;;;;;4912379;29;20444;-90
2024/03/21 10:42:25;;;;;;;5.47;0.50;;;11.40;99.90;;;;;;4907837;29;20032;-91
2024/03/21 10:44:59;;;;;;;2.65;0.50;;;11.20;99.90;;;;;;4909090;29;20484;-89
2024/03/21 10:47:26;;;;;;;3.53;0.40;;;11.20;99.90;;;;;;4901871;29;20122;-91
2024/03/21 10:49:53;;;;;;;2.03;0.50;;;11.60;99.90;;;;;;4910336;29;20480;-91
2024/03/21 10:52:20;;;;;;;1.63;0.40;;;11.80;99.90;;;;;;4902695;29;20050;-90
2024/03/21 10:54:53;;;;;;;2.70;0.60;;;12.10;99.90;;;;;;4906221;29;20452;-89
2024/03/21 10:57:25;;;;;;;2.85;0.50;;;12.00;99.90;;;;;;4913733;29;20040;-89
2024/03/21 11:00:12;;;;;;;2.83;0.55;;;11.80;99.90;;;;;;4896124;29;20498;-90
2024/03/21 11:02:42;;;;;;;3.92;0.40;;;12.40;99.90;;;;;;4893592;29;20044;-90
2024/03/21 11:05:16;;;;;;;4.00;0.60;;;12.50;99.90;;;;;;4914780;29;20043;-91
2024/03/21 11:07:45;;;;;;;1.60;0.43;;;12.30;99.90;;;;;;4895302;29;20028;-90
2024/03/21 11:10:19;;;;;;;4.90;0.60;;;12.10;99.90;;;;;;4911056;29;20031;-90
2024/03/21 11:12:45;;;;;;;3.90;0.60;;;12.00;99.90;;;;;;4894177;29;20086;-90
2024/03/21 11:15:11;;;;;;;4.90;0.60;;;12.30;99.90;;;;;;4896187;29;20056;-90
2024/03/21 11:17:38;;;;;;;3.58;0.40;;;12.10;99.90;;;;;;4916538;29;20150;-90
2024/03/21 11:20:09;;;;;;;3.58;0.50;;;12.40;99.90;;;;;;4914551;29;20046;-91
2024/03/21 11:22:36;;;;;;;4.15;0.60;;;12.60;99.90;;;;;;4902908;29;20035;-90
2024/03/21 11:25:02;;;;;;;3.97;0.95;;;12.80;99.90;;;;;;4914871;29;20060;-91
2024/03/21 11:27:29;;;;;;;5.72;0.88;;;12.50;99.90;;;;;;4913736;29;20044;-93
2024/03/21 11:29:55;;;;;;;5.75;0.90;;;12.40;99.90;;;;;;4913320;29;20035;-89
2024/03/21 11:32:23;;;;;;;3.17;0.68;;;12.40;99.90;;;;;;4913877;29;20572;-88
2024/03/21 11:34:50;;;;;;;2.45;0.50;;;12.40;99.90;;;;;;4896429;29;20059;-91
2024/03/21 11:37:16;;;;;;;1.92;0.50;;;12.70;99.90;;;;;;4914171;29;20036;-90
2024/03/21 11:39:42;;;;;;;3.35;0.60;;;13.00;99.90;;;;;;4898390;29;20044;-91
2024/03/21 11:42:12;;;;;;;2.60;0.60;;;12.60;99.90;;;;;;4906839;29;20043;-91
2024/03/21 11:44:39;;;;;;;;;;;12.30;99.90;;;;;;4929983;29;20032;-92
2024/03/21 11:47:16;;;;;;;2.97;0.70;;;12.00;99.90;;;;;;4904314;29;19915;-91
2024/03/21 11:49:52;;;;;;;3.72;0.90;;;12.40;99.90;;;;;;4910840;29;20078;-90
2024/03/21 11:52:19;;;;;;;3.67;0.70;;;12.60;99.90;;;;;;4910703;29;20055;-92
2024/03/21 11:54:46;;;;;;;2.13;0.60;;;13.00;99.90;;;;;;4908284;29;20169;-92
2024/03/21 11:57:13;;;;;;;5.03;0.88;;;13.10;99.90;;;;;;4895593;29;20040;-92
2024/03/21 11:59:41;;;;;;;3.25;0.57;;;12.90;99.90;;;;;;4902344;29;20107;-91
2024/03/21 12:02:19;;;;;;;5.90;0.70;;;12.80;99.90;;;;;;4916445;29;20047;-91
2024/03/21 12:04:45;;;;;;;3.30;0.60;;;12.70;99.90;;;;;;4914037;29;20043;-91
2024/03/21 12:07:16;;;;;;;5.03;0.73;;;12.50;99.90;;;;;;4911359;29;20048;-90
2024/03/21 12:09:41;;;;;;;5.78;0.70;;;12.40;99.90;;;;;;4916759;29;20039;-92
2024/03/21 12:12:15;;;;;;;5.32;0.57;;;12.40;99.90;;;;;;4899148;29;20240;-91
2024/03/21 12:14:43;;;;;;;4.40;0.70;;;12.60;99.90;;;;;;4917961;29;20048;-91
2024/03/21 12:17:10;;;;;;;3.90;1.08;;;12.10;99.90;;;;;;4905721;29;20032;-91
2024/03/21 12:19:37;;;;;;;5.43;0.73;;;12.30;99.90;;;;;;4917083;29;20032;-91
2024/03/21 12:22:04;;;;;;;3.38;0.55;;;12.50;99.90;;;;;;4917172;29;20047;-91
2024/03/21 12:24:33;;;;;;;6.15;0.93;;;12.50;99.90;;;;;;4897702;29;20052;-91
2024/03/21 12:27:01;;;;;;;5.47;0.90;;;12.40;99.90;;;;;;4907686;29;20047;-92
2024/03/21 12:29:27;;;;;;;4.78;0.70;;;12.30;99.90;;;;;;4920152;29;20094;-90
2024/03/21 12:31:53;;;;;;;6.03;0.73;;;12.80;99.90;;;;;;4907691;29;20035;-91
2024/03/21 12:34:18;;;;;;;4.68;0.77;;;12.80;99.90;;;;;;4908316;29;20055;-92
2024/03/21 12:36:44;;;;;;;2.55;0.60;;;12.50;99.90;;;;;;4929951;29;20032;-91
2024/03/21 12:39:10;;;;;;;5.45;0.90;;;12.90;99.90;;;;;;4902304;29;20056;-93
2024/03/21 12:41:38;;;;;;;4.95;0.70;;;12.50;99.90;;;;;;4918506;29;20028;-91
2024/03/21 12:44:04;;;;;;;3.80;0.60;;;12.30;99.90;;;;;;4900384;29;20048;-91
2024/03/21 12:46:30;;;;;;;5.20;0.70;;;12.20;99.90;;;;;;4905493;29;20071;-90
2024/03/21 12:48:56;;;;;;;4.75;0.70;;;12.10;99.90;;;;;;4907419;29;20036;-91
2024/03/21 12:51:24;;;;;;;2.15;0.60;;;12.10;99.90;;;;;;4902188;29;20103;-90